»·PEaware :: N360AS S31-W04

N360AS :: S31-W04

FLIGHT INFORMATION

Flight Status: Arrived
Operator: Privately registered:
United States
More flights under this callsign
Pilot: Chuck O. (4337)
Aircraft: Unknown
(LEG2)
More flights by this aircraft type
Origin: S31 Lopez Island
United States
Destination: W04 Ocean Shores Mun
United States
More flights between these airports :: More routes between these airports
Route: JIGEB YUCSU TOU HQM
File this flight plan on PilotEdge
Remarks: ABC WA Leg 26
Altitude:
(Current/Filed)
8,500ft
Speed:
(Current/Filed)
230kts
Departed: 14-Jul-20 03:50 PM
Arrived: 14-Jul-20 04:31 PM
Distance/Time
Traveled:
101nm/0:41
Distance/Time
To Go:
Arrived

Flight Plot

Page will automatically refresh every two minutes.

Flight plan parsing failed; only flown route is shown


Map Options




Map Legend


Flown Route
Filed Route
Departure Airport
Arrival Airport
Navaid (VOR, NDB)
Fix

Horizontal Profiles

Position Reports

Time Latitude Longitude Heading Altitude Ground
Speed
14-Jul-20 15:32 48.486556 -122.936923 270 193ft 0kts
14-Jul-20 15:33 48.486556 -122.936923 270 193ft 0kts
14-Jul-20 15:34 48.486556 -122.936923 270 193ft 0kts
14-Jul-20 15:35 48.486556 -122.936923 270 193ft 0kts
14-Jul-20 15:36 48.486556 -122.936923 269 193ft 0kts
14-Jul-20 15:37 48.486556 -122.936923 269 193ft 0kts
14-Jul-20 15:37 48.486556 -122.936923 269 193ft 0kts
14-Jul-20 15:39 48.486556 -122.936923 269 193ft 0kts
14-Jul-20 15:40 48.486556 -122.936923 269 193ft 0kts
14-Jul-20 15:40 48.486556 -122.936923 269 193ft 0kts
14-Jul-20 15:42 48.486556 -122.936923 269 193ft 0kts
14-Jul-20 15:42 48.486556 -122.936923 269 193ft 0kts
14-Jul-20 15:43 48.486556 -122.936923 269 193ft 0kts
14-Jul-20 15:44 48.486556 -122.936923 269 193ft 0kts
14-Jul-20 15:45 48.486930 -122.937109 359 192ft 0kts
14-Jul-20 15:46 48.486930 -122.937109 359 192ft 0kts
14-Jul-20 15:47 48.487736 -122.937167 303 190ft 0kts
14-Jul-20 15:48 48.487736 -122.937167 303 190ft 0kts
14-Jul-20 15:49 48.483083 -122.937617 179 202ft 102kts
14-Jul-20 15:50 48.445192 -122.950327 195 1899ft 151kts
14-Jul-20 15:51 48.405992 -122.964844 192 3811ft 147kts
14-Jul-20 15:52 48.365160 -122.979099 193 5412ft 155kts
14-Jul-20 15:53 48.322656 -122.993878 193 7124ft 160kts
14-Jul-20 15:54 48.278528 -123.009210 193 8470ft 176kts
14-Jul-20 15:55 48.232153 -123.049841 256 8499ft 224kts
14-Jul-20 15:56 48.226275 -123.146679 267 8501ft 241kts
14-Jul-20 15:57 48.221606 -123.248253 267 8500ft 247kts
14-Jul-20 15:58 48.216740 -123.352069 267 8500ft 250kts
14-Jul-20 15:59 48.211754 -123.456510 267 8500ft 251kts
14-Jul-20 16:00 48.206671 -123.560882 267 8499ft 251kts
14-Jul-20 16:01 48.201503 -123.665186 266 8500ft 250kts
14-Jul-20 16:02 48.196231 -123.769431 266 8500ft 250kts
14-Jul-20 16:03 48.190865 -123.873817 266 8501ft 251kts
14-Jul-20 16:04 48.200159 -123.976836 283 8505ft 249kts
14-Jul-20 16:05 48.215879 -124.078003 284 8508ft 249kts
14-Jul-20 16:06 48.231602 -124.179298 284 8509ft 249kts
14-Jul-20 16:07 48.230489 -124.278756 240 8506ft 253kts
14-Jul-20 16:08 48.198711 -124.373647 245 8509ft 253kts
14-Jul-20 16:09 48.167377 -124.468061 245 8509ft 253kts
14-Jul-20 16:10 48.134908 -124.561584 241 8438ft 256kts
14-Jul-20 16:11 48.068563 -124.550577 152 7535ft 282kts
14-Jul-20 16:12 47.995588 -124.517470 167 7518ft 273kts
14-Jul-20 16:13 47.920958 -124.490647 167 7523ft 278kts
14-Jul-20 16:14 47.845548 -124.463751 167 7525ft 279kts
14-Jul-20 16:15 47.770155 -124.436938 167 7526ft 279kts
14-Jul-20 16:16 47.694540 -124.410126 167 7526ft 279kts
14-Jul-20 16:17 47.620631 -124.384000 167 7526ft 279kts
14-Jul-20 16:18 47.545067 -124.357359 167 7526ft 279kts
14-Jul-20 16:19 47.470062 -124.331056 167 6710ft 269kts
14-Jul-20 16:20 47.398539 -124.305950 167 5754ft 260kts
14-Jul-20 16:21 47.328460 -124.281457 167 4802ft 258kts
14-Jul-20 16:22 47.258710 -124.257146 167 3851ft 258kts
14-Jul-20 16:23 47.189006 -124.232917 167 3025ft 255kts
14-Jul-20 16:24 47.120206 -124.209063 168 2226ft 253kts
14-Jul-20 16:25 47.052852 -124.185775 168 1424ft 245kts
14-Jul-20 16:26 46.998121 -124.166889 170 1207ft 157kts
14-Jul-20 16:27 46.964535 -124.155203 169 1197ft 109kts
14-Jul-20 16:28 46.956822 -124.132132 337 660ft 138kts
14-Jul-20 16:29 46.986274 -124.139279 347 209ft 90kts
14-Jul-20 16:30 46.999311 -124.142483 273 22ft 0kts
14-Jul-20 16:31 46.999273 -124.143275 260 22ft 0kts
14-Jul-20 16:32 46.999289 -124.143586 70 22ft 0kts
14-Jul-20 16:33 46.999421 -124.143750 270 22ft 2kts
14-Jul-20 16:34 46.999498 -124.143853 80 22ft 0kts
14-Jul-20 16:35 46.999498 -124.143853 80 22ft 0kts
14-Jul-20 16:36 46.999498 -124.143853 80 22ft 0kts
14-Jul-20 16:37 46.999498 -124.143853 80 22ft 0kts
14-Jul-20 16:38 46.999498 -124.143853 80 22ft 0kts
14-Jul-20 16:39 46.999498 -124.143853 80 22ft 0kts
14-Jul-20 16:40 46.999498 -124.143853 80 22ft 0kts
14-Jul-20 16:41 46.999498 -124.143853 80 22ft 0kts
14-Jul-20 16:42 46.999498 -124.143853 80 22ft 0kts
14-Jul-20 16:43 46.999498 -124.143853 80 22ft 0kts

Navigation Log

Ident Type
Flight plan parsing failed, navigation log unavailable